Quinebaug River @ Jewett City, Ct

Quinebaug River at Jewett City
 Total Drainage Area: 715 sq. miles 
 Drainage Area Controlled by Corps Dams: 231 sq. miles (32%) 
 Warning Flow/Stage: 7,730 cfs / 13.4 feet 
 Flood Flow/Stage: 14,100 cfs / 17.5 feet 
Date Time
(Eastern)
Stage
(ft)
Flow
(cfs)
CSM
(cfs / sq. mi.)
Jun-25 01:30 am 7.48 1,744 2.4
Jun-25 12:30 am 7.52 1,772 2.5
Jun-24 11:30 pm 7.51 1,765 2.5
Jun-24 10:30 pm 7.53 1,779 2.5
Jun-24 09:30 pm 7.57 1,807 2.5
Jun-24 08:30 pm 7.61 1,836 2.6
Jun-24 07:30 pm 7.64 1,857 2.6
Jun-24 06:30 pm 7.65 1,864 2.6
Jun-24 05:30 pm 7.68 1,886 2.6
Jun-24 04:30 pm 7.71 1,908 2.7
Jun-24 03:30 pm 7.76 1,945 2.7
Jun-24 02:30 pm 7.77 1,952 2.7
Jun-24 01:30 pm 7.81 1,982 2.8
Jun-24 12:30 pm 7.87 2,026 2.8
Jun-24 11:30 am 7.90 2,049 2.9
Jun-24 10:30 am 7.94 2,079 2.9
Jun-24 09:30 am 7.99 2,117 3.0
Jun-24 08:30 am 8.05 2,163 3.0
Jun-24 07:30 am 8.07 2,179 3.1
Jun-24 06:30 am 8.15 2,241 3.1
Jun-24 05:30 am 8.16 2,249 3.2
Jun-24 04:30 am 8.21 2,289 3.2
Jun-24 03:30 am 8.25 2,321 3.3
Jun-24 02:30 am 8.31 2,369 3.3
Jun-24 01:30 am 8.36 2,409 3.4
Report Generated June 25, 2024 06:08 am